createdAt,value
2018-06-03T00:00:57.689Z,99.90
2018-06-03T00:03:24.002Z,99.90
2018-06-03T00:05:50.312Z,99.90
2018-06-03T00:08:16.641Z,99.90
2018-06-03T00:10:42.974Z,99.90
2018-06-03T00:13:10.408Z,99.90
2018-06-03T00:15:36.720Z,99.90
2018-06-03T00:18:03.051Z,99.90
2018-06-03T00:20:41.653Z,99.90
2018-06-03T00:23:07.981Z,99.90
2018-06-03T00:25:34.264Z,99.90
2018-06-03T00:28:01.327Z,99.90
2018-06-03T00:30:27.730Z,99.90
2018-06-03T00:32:54.075Z,99.90
2018-06-03T00:35:21.135Z,99.90
2018-06-03T00:37:47.428Z,99.90
2018-06-03T00:40:13.777Z,99.90
2018-06-03T00:42:40.839Z,99.90
2018-06-03T00:45:07.927Z,99.90
2018-06-03T00:47:34.248Z,99.90
2018-06-03T00:50:00.586Z,99.90
2018-06-03T00:52:27.195Z,99.90
2018-06-03T00:54:53.549Z,99.90
2018-06-03T00:57:19.858Z,99.90
2018-06-03T00:59:46.948Z,99.90
2018-06-03T01:02:44.810Z,99.90
2018-06-03T01:05:12.393Z,99.90
2018-06-03T01:07:39.969Z,99.90
2018-06-03T01:10:07.580Z,99.90
2018-06-03T01:12:35.249Z,99.90
2018-06-03T01:15:02.827Z,99.90
2018-06-03T01:17:30.378Z,99.90
2018-06-03T01:19:57.909Z,99.90
2018-06-03T01:22:25.458Z,99.90
2018-06-03T01:24:53.008Z,99.90
2018-06-03T01:27:20.503Z,99.90
2018-06-03T01:29:48.044Z,99.90
2018-06-03T01:34:43.054Z,99.90
2018-06-03T01:37:10.577Z,99.90
2018-06-03T01:39:38.118Z,99.90
2018-06-03T01:42:05.791Z,99.90
2018-06-03T01:44:33.352Z,99.90
2018-06-03T01:47:00.878Z,99.90
2018-06-03T01:49:28.414Z,99.90
2018-06-03T01:51:55.947Z,99.90
2018-06-03T01:54:23.471Z,99.90
2018-06-03T01:56:50.994Z,99.90
2018-06-03T01:59:18.498Z,99.90
2018-06-03T02:01:46.143Z,99.90
2018-06-03T02:04:13.674Z,99.90
2018-06-03T02:06:41.189Z,99.90
2018-06-03T02:09:08.734Z,99.90
2018-06-03T02:11:36.377Z,99.90
2018-06-03T02:14:03.918Z,99.90
2018-06-03T02:16:31.428Z,99.90
2018-06-03T02:18:58.984Z,99.90
2018-06-03T02:21:26.539Z,99.90
2018-06-03T02:23:54.106Z,99.90
2018-06-03T02:26:21.803Z,99.90
2018-06-03T02:28:49.361Z,99.90
2018-06-03T02:31:17.185Z,99.90
2018-06-03T02:33:44.710Z,99.90
2018-06-03T02:36:12.240Z,99.90
2018-06-03T02:38:39.813Z,99.90
2018-06-03T02:41:07.349Z,99.90
2018-06-03T02:43:34.914Z,99.90
2018-06-03T02:46:02.443Z,99.90
2018-06-03T02:48:30.235Z,99.90
2018-06-03T02:50:57.798Z,99.90
2018-06-03T02:53:25.308Z,99.90
2018-06-03T02:55:52.856Z,99.90
2018-06-03T02:58:20.400Z,99.90
2018-06-03T03:00:47.931Z,99.90
2018-06-03T03:03:15.679Z,99.90
2018-06-03T03:05:43.196Z,99.90
2018-06-03T03:08:10.719Z,99.90
2018-06-03T03:10:38.223Z,99.90
2018-06-03T03:13:05.768Z,99.90
2018-06-03T03:15:33.313Z,99.90
2018-06-03T03:18:00.855Z,99.90
2018-06-03T03:20:28.694Z,99.90
2018-06-03T03:25:23.698Z,99.90
2018-06-03T03:27:51.244Z,99.90
2018-06-03T03:30:18.794Z,99.90
2018-06-03T03:32:46.352Z,99.90
2018-06-03T03:35:13.914Z,99.90
2018-06-03T03:37:41.488Z,99.90
2018-06-03T03:40:09.016Z,99.90
2018-06-03T03:42:36.555Z,99.90
2018-06-03T03:45:04.079Z,99.90
2018-06-03T03:47:31.580Z,99.90
2018-06-03T03:49:59.114Z,99.90
2018-06-03T03:52:26.654Z,99.90
2018-06-03T03:54:54.383Z,99.90
2018-06-03T03:57:21.885Z,99.90
2018-06-03T03:59:49.412Z,99.90
2018-06-03T04:02:16.911Z,99.90
2018-06-03T04:04:44.411Z,99.90
2018-06-03T04:07:11.932Z,99.90
2018-06-03T04:09:39.493Z,99.90
2018-06-03T04:12:07.074Z,99.90
2018-06-03T04:14:34.615Z,99.90
2018-06-03T04:19:29.591Z,99.90
2018-06-03T04:21:57.224Z,99.90
2018-06-03T04:24:24.770Z,99.90
2018-06-03T04:26:52.262Z,99.90
2018-06-03T04:29:19.814Z,99.90
2018-06-03T04:31:47.330Z,99.90
2018-06-03T04:34:14.979Z,99.90
2018-06-03T04:36:42.513Z,99.90
2018-06-03T04:39:10.062Z,99.90
2018-06-03T04:41:37.562Z,99.90
2018-06-03T04:44:05.347Z,99.90
2018-06-03T04:46:32.862Z,99.90
2018-06-03T04:49:00.617Z,99.90
2018-06-03T04:51:28.220Z,99.90
2018-06-03T04:53:55.750Z,99.90
2018-06-03T04:56:23.269Z,99.90
2018-06-03T04:58:50.789Z,99.90
2018-06-03T05:01:18.303Z,99.90
2018-06-03T05:03:49.780Z,99.90
2018-06-03T05:06:17.318Z,99.90
2018-06-03T05:08:44.866Z,99.90
2018-06-03T05:11:12.373Z,99.90
2018-06-03T05:13:39.903Z,99.90
2018-06-03T05:16:07.502Z,99.90
2018-06-03T05:18:35.030Z,99.90
2018-06-03T05:21:02.515Z,99.90
2018-06-03T05:23:30.196Z,99.90
2018-06-03T05:25:57.718Z,99.90
2018-06-03T05:28:25.264Z,99.90
2018-06-03T05:30:52.800Z,99.90
2018-06-03T05:33:20.363Z,99.90
2018-06-03T05:35:47.883Z,99.90
2018-06-03T05:38:15.429Z,99.90
2018-06-03T05:40:42.965Z,99.90
2018-06-03T05:43:10.685Z,99.90
2018-06-03T05:45:38.232Z,99.90
2018-06-03T05:48:05.774Z,99.90
2018-06-03T05:50:33.433Z,99.90
2018-06-03T05:53:01.192Z,99.90
2018-06-03T05:55:28.769Z,99.90
2018-06-03T05:57:56.330Z,99.90
2018-06-03T06:00:23.898Z,99.90
2018-06-03T06:02:51.626Z,99.90
2018-06-03T06:05:19.168Z,99.90
2018-06-03T06:07:46.689Z,99.90
2018-06-03T06:12:41.703Z,99.90
2018-06-03T06:15:09.252Z,99.90
2018-06-03T06:17:36.823Z,99.90
2018-06-03T06:20:05.453Z,99.90
2018-06-03T06:22:32.970Z,99.90
2018-06-03T06:25:00.556Z,99.90
2018-06-03T06:29:55.734Z,99.90
2018-06-03T06:32:23.282Z,99.90
2018-06-03T06:34:50.795Z,99.90
2018-06-03T06:37:18.371Z,99.90
2018-06-03T06:39:45.912Z,99.90
2018-06-03T06:42:13.954Z,99.90
2018-06-03T06:44:41.484Z,99.90
2018-06-03T06:47:09.077Z,99.90
2018-06-03T06:49:36.638Z,99.90
2018-06-03T06:52:04.197Z,99.90
2018-06-03T06:54:32.231Z,99.90
2018-06-03T06:56:59.733Z,99.90
2018-06-03T06:59:27.295Z,99.90
2018-06-03T07:01:54.796Z,98.90
2018-06-03T07:04:22.330Z,99.00
2018-06-03T07:06:49.894Z,99.50
2018-06-03T07:09:17.405Z,97.80
2018-06-03T07:11:44.976Z,96.50
2018-06-03T07:14:12.668Z,94.70
2018-06-03T07:16:40.605Z,94.00
2018-06-03T07:19:08.150Z,94.00
2018-06-03T07:21:35.917Z,83.60
2018-06-03T07:27:00.349Z,76.00
2018-06-03T07:29:28.028Z,86.90
2018-06-03T07:31:58.381Z,70.60
2018-06-03T07:34:26.634Z,75.60
2018-06-03T07:36:54.198Z,70.80
2018-06-03T07:39:21.783Z,63.50
2018-06-03T07:41:49.359Z,63.10
2018-06-03T07:46:44.429Z,60.60
2018-06-03T07:49:12.031Z,63.20
2018-06-03T07:51:39.572Z,58.30
2018-06-03T07:54:07.144Z,57.80
2018-06-03T07:56:34.699Z,59.30
2018-06-03T07:59:02.216Z,59.40
2018-06-03T08:01:29.757Z,58.70
2018-06-03T08:03:57.354Z,59.40
2018-06-03T08:06:24.931Z,62.50
2018-06-03T08:08:52.478Z,58.70
2018-06-03T08:11:20.084Z,55.90
2018-06-03T08:13:47.695Z,56.80
2018-06-03T08:16:15.298Z,55.60
2018-06-03T08:21:10.464Z,53.70
2018-06-03T08:23:37.994Z,51.70
2018-06-03T08:26:05.602Z,54.10
2018-06-03T08:28:33.283Z,51.40
2018-06-03T08:31:00.929Z,54.90
2018-06-03T08:33:28.478Z,55.40
2018-06-03T08:35:56.108Z,53.90
2018-06-03T08:38:23.737Z,53.50
2018-06-03T08:40:51.343Z,56.00
2018-06-03T08:43:18.883Z,56.90
2018-06-03T08:45:46.362Z,54.60
2018-06-03T08:48:13.954Z,54.70
2018-06-03T08:50:41.565Z,55.90
2018-06-03T08:53:09.097Z,57.10
2018-06-03T08:55:36.714Z,58.10
2018-06-03T08:58:04.282Z,55.10
2018-06-03T09:00:35.641Z,57.00
2018-06-03T09:03:03.200Z,51.40
2018-06-03T09:05:30.856Z,51.90
2018-06-03T09:07:58.529Z,50.20
2018-06-03T09:10:26.026Z,49.60
2018-06-03T09:12:54.673Z,51.40
2018-06-03T09:15:22.343Z,46.90
2018-06-03T09:17:53.358Z,46.60
2018-06-03T09:20:20.941Z,53.90
2018-06-03T09:22:48.431Z,48.20
2018-06-03T09:25:15.932Z,51.60
2018-06-03T09:27:43.471Z,51.50
2018-06-03T09:30:11.272Z,47.70
2018-06-03T09:32:41.601Z,48.70
2018-06-03T09:35:09.270Z,48.50
2018-06-03T09:37:38.451Z,49.80
2018-06-03T09:40:07.758Z,49.30
2018-06-03T09:42:35.546Z,48.30
2018-06-03T09:45:03.142Z,49.90
2018-06-03T09:47:30.674Z,50.30
2018-06-03T09:49:59.279Z,49.50
2018-06-03T09:52:26.890Z,47.70
2018-06-03T09:54:54.410Z,47.30
2018-06-03T09:57:21.929Z,44.80
2018-06-03T09:59:49.467Z,49.40
2018-06-03T10:02:17.298Z,45.10
2018-06-03T10:04:44.984Z,44.70
2018-06-03T10:07:12.532Z,45.00
2018-06-03T10:09:40.039Z,43.60
2018-06-03T10:12:07.534Z,38.90
2018-06-03T10:14:35.311Z,38.30
2018-06-03T10:17:02.866Z,44.20
2018-06-03T10:19:30.391Z,42.30
2018-06-03T10:21:57.885Z,38.10
2018-06-03T10:24:25.423Z,38.90
2018-06-03T10:26:52.906Z,42.60
2018-06-03T10:29:20.434Z,37.50
2018-06-03T10:31:47.929Z,39.20
2018-06-03T10:34:15.472Z,37.90
2018-06-03T10:36:42.998Z,34.50
2018-06-03T10:39:10.539Z,39.10
2018-06-03T10:41:38.068Z,36.30
2018-06-03T10:44:05.558Z,36.50
2018-06-03T10:46:33.096Z,35.10
2018-06-03T10:49:00.590Z,39.30
2018-06-03T10:51:28.367Z,38.40
2018-06-03T10:53:55.868Z,39.30
2018-06-03T10:56:23.351Z,36.20
2018-06-03T10:58:50.880Z,35.40
2018-06-03T11:03:45.867Z,37.40
2018-06-03T11:06:13.388Z,36.30
2018-06-03T11:08:40.901Z,37.70
2018-06-03T11:13:36.065Z,34.80
2018-06-03T11:16:03.582Z,34.70
2018-06-03T11:18:31.084Z,37.10
2018-06-03T11:20:58.564Z,34.60
2018-06-03T11:23:26.062Z,35.40
2018-06-03T11:25:53.625Z,37.60
2018-06-03T11:28:21.129Z,38.60
2018-06-03T11:30:48.773Z,38.20
2018-06-03T11:33:16.250Z,34.10
2018-06-03T11:35:43.785Z,36.70
2018-06-03T11:38:11.269Z,36.50
2018-06-03T11:40:38.766Z,38.40
2018-06-03T11:43:06.279Z,41.50
2018-06-03T11:45:33.958Z,42.10
2018-06-03T11:48:01.610Z,42.00
2018-06-03T11:50:29.126Z,41.60
2018-06-03T11:52:56.642Z,42.40
2018-06-03T11:55:24.127Z,43.30
2018-06-03T11:58:34.289Z,43.10
2018-06-03T12:01:02.175Z,39.30
2018-06-03T12:03:29.829Z,43.80
2018-06-03T12:05:57.456Z,45.60
2018-06-03T12:08:24.963Z,44.10
2018-06-03T12:10:52.506Z,40.10
2018-06-03T12:13:20.098Z,43.30
2018-06-03T12:15:47.598Z,41.90
2018-06-03T12:18:15.090Z,36.40
2018-06-03T12:20:42.641Z,35.30
2018-06-03T12:23:10.206Z,37.10
2018-06-03T12:25:37.702Z,38.90
2018-06-03T12:28:05.246Z,39.10
2018-06-03T12:30:33.941Z,40.20
2018-06-03T12:33:01.479Z,43.10
2018-06-03T12:35:28.985Z,45.00
2018-06-03T12:37:56.567Z,40.20
2018-06-03T12:40:24.074Z,40.50
2018-06-03T12:42:51.582Z,40.30
2018-06-03T12:45:19.078Z,41.60
2018-06-03T12:47:46.635Z,42.50
2018-06-03T12:50:14.151Z,42.60
2018-06-03T12:52:41.702Z,37.20
2018-06-03T12:55:09.218Z,36.30
2018-06-03T12:57:36.708Z,36.00
2018-06-03T13:00:04.579Z,34.80
2018-06-03T13:02:32.090Z,34.10
2018-06-03T13:04:59.560Z,35.50
2018-06-03T13:07:27.061Z,35.20
2018-06-03T13:09:54.599Z,34.40
2018-06-03T13:12:22.118Z,40.00
2018-06-03T13:14:49.631Z,38.00
2018-06-03T13:17:18.393Z,35.90
2018-06-03T13:19:46.078Z,39.00
2018-06-03T13:22:13.606Z,39.40
2018-06-03T13:24:41.121Z,40.80
2018-06-03T13:27:08.626Z,41.60
2018-06-03T13:29:36.152Z,40.50
2018-06-03T13:32:03.847Z,38.20
2018-06-03T13:34:31.302Z,40.80
2018-06-03T13:36:58.782Z,38.10
2018-06-03T13:39:27.002Z,39.20
2018-06-03T13:41:54.522Z,42.20
2018-06-03T13:44:22.082Z,41.20
2018-06-03T13:46:49.641Z,43.00
2018-06-03T13:49:17.138Z,43.20
2018-06-03T13:51:44.651Z,42.40
2018-06-03T13:54:12.145Z,42.70
2018-06-03T13:56:39.713Z,46.20
2018-06-03T14:01:34.699Z,48.10
2018-06-03T14:04:02.241Z,43.10
2018-06-03T14:06:29.775Z,43.30
2018-06-03T14:08:57.335Z,43.20
2018-06-03T14:11:24.881Z,42.20
2018-06-03T14:13:52.370Z,43.90
2018-06-03T14:16:20.075Z,42.30
2018-06-03T14:18:47.552Z,42.50
2018-06-03T14:21:15.038Z,43.90
2018-06-03T14:23:42.535Z,43.90
2018-06-03T14:26:10.067Z,45.10
2018-06-03T14:28:38.197Z,44.80
2018-06-03T14:31:05.819Z,44.10
2018-06-03T14:33:33.458Z,44.40
2018-06-03T14:36:00.963Z,44.50
2018-06-03T14:38:28.470Z,44.60
2018-06-03T14:40:56.026Z,45.00
2018-06-03T14:43:23.510Z,44.50
2018-06-03T14:45:51.086Z,43.80
2018-06-03T14:48:18.565Z,43.90
2018-06-03T14:50:46.102Z,42.40
2018-06-03T14:53:13.610Z,43.80
2018-06-03T14:55:41.130Z,39.20
2018-06-03T14:58:08.689Z,44.30
2018-06-03T15:00:36.198Z,42.70
2018-06-03T15:03:03.798Z,41.00
2018-06-03T15:05:31.315Z,42.10
2018-06-03T15:10:26.346Z,40.40
2018-06-03T15:12:53.859Z,42.70
2018-06-03T15:15:21.534Z,39.50
2018-06-03T15:17:49.053Z,42.20
2018-06-03T15:20:16.960Z,43.70
2018-06-03T15:22:44.497Z,40.80
2018-06-03T15:25:12.089Z,41.10
2018-06-03T15:27:39.681Z,42.60
2018-06-03T15:30:07.218Z,42.00
2018-06-03T15:32:34.721Z,44.70
2018-06-03T15:35:02.274Z,45.80
2018-06-03T15:37:29.758Z,43.00
2018-06-03T15:39:57.279Z,40.40
2018-06-03T15:42:24.782Z,40.40
2018-06-03T15:44:52.442Z,43.50
2018-06-03T15:47:20.007Z,45.50
2018-06-03T15:49:47.509Z,43.50
2018-06-03T15:52:15.010Z,42.40
2018-06-03T15:54:42.674Z,41.50
2018-06-03T15:57:10.236Z,41.30
2018-06-03T15:59:37.731Z,45.10
2018-06-03T16:02:05.546Z,44.60
2018-06-03T16:04:33.129Z,44.20
2018-06-03T16:07:00.802Z,45.90
2018-06-03T16:09:28.483Z,44.50
2018-06-03T16:11:56.096Z,43.90
2018-06-03T16:14:23.610Z,43.90
2018-06-03T16:16:51.144Z,45.10
2018-06-03T16:19:18.658Z,42.80
2018-06-03T16:21:46.175Z,43.00
2018-06-03T16:24:13.945Z,43.30
2018-06-03T16:26:41.634Z,45.00
2018-06-03T16:29:09.158Z,45.10
2018-06-03T16:34:04.210Z,46.70
2018-06-03T16:36:31.735Z,46.80
2018-06-03T16:39:00.547Z,47.50
2018-06-03T16:41:28.037Z,44.60
2018-06-03T16:43:55.563Z,46.70
2018-06-03T16:46:23.222Z,45.50
2018-06-03T16:48:50.729Z,46.30
2018-06-03T16:51:18.353Z,47.10
2018-06-03T16:53:45.907Z,46.50
2018-06-03T16:56:13.490Z,48.40
2018-06-03T16:58:41.035Z,49.00
2018-06-03T17:01:08.571Z,46.80
2018-06-03T17:03:36.063Z,48.30
2018-06-03T17:06:03.590Z,48.90
2018-06-03T17:08:31.078Z,47.00
2018-06-03T17:10:58.649Z,46.50
2018-06-03T17:13:26.189Z,47.00
2018-06-03T17:15:54.056Z,48.60
2018-06-03T17:18:21.592Z,47.80
2018-06-03T17:20:49.130Z,48.30
2018-06-03T17:23:16.657Z,48.80
2018-06-03T17:25:44.164Z,49.50
2018-06-03T17:28:15.198Z,50.60
2018-06-03T17:30:42.705Z,51.60
2018-06-03T17:35:37.751Z,54.40
2018-06-03T17:38:05.322Z,54.80
2018-06-03T17:40:34.305Z,55.00
2018-06-03T17:43:01.852Z,55.50
2018-06-03T17:45:29.362Z,53.20
2018-06-03T17:47:56.862Z,55.10
2018-06-03T17:50:24.380Z,56.40
2018-06-03T17:52:52.000Z,57.00
2018-06-03T17:55:20.636Z,57.80
2018-06-03T17:57:48.192Z,58.60
2018-06-03T18:00:16.175Z,58.90
2018-06-03T18:02:43.724Z,59.70
2018-06-03T18:05:11.326Z,60.20
2018-06-03T18:07:38.875Z,61.40
2018-06-03T18:10:06.438Z,61.60
2018-06-03T18:12:35.000Z,61.90
2018-06-03T18:15:02.582Z,61.80
2018-06-03T18:17:30.303Z,61.50
2018-06-03T18:19:57.869Z,62.00
2018-06-03T18:22:25.502Z,62.20
2018-06-03T18:24:53.036Z,62.00
2018-06-03T18:27:20.588Z,62.30
2018-06-03T18:29:52.187Z,62.20
2018-06-03T18:32:19.746Z,62.50
2018-06-03T18:34:47.292Z,62.90
2018-06-03T18:37:14.814Z,63.00
2018-06-03T18:39:45.052Z,63.60
2018-06-03T18:42:14.630Z,64.10
2018-06-03T18:44:42.303Z,64.70
2018-06-03T18:47:10.052Z,65.20
2018-06-03T18:49:37.644Z,66.00
2018-06-03T18:52:05.495Z,66.40
2018-06-03T18:54:33.064Z,66.80
2018-06-03T18:57:00.814Z,66.90
2018-06-03T18:59:28.585Z,67.60
2018-06-03T19:01:56.453Z,68.40
2018-06-03T19:04:24.196Z,68.70
2018-06-03T19:06:51.868Z,69.60
2018-06-03T19:09:20.398Z,70.30
2018-06-03T19:14:18.895Z,71.70
2018-06-03T19:16:46.838Z,72.50
2018-06-03T19:19:14.419Z,73.20
2018-06-03T19:21:42.138Z,73.80
2018-06-03T19:24:09.691Z,74.60
2018-06-03T19:26:37.235Z,75.50
2018-06-03T19:29:04.826Z,76.40
2018-06-03T19:31:32.402Z,77.00
2018-06-03T19:33:59.985Z,77.70
2018-06-03T19:36:27.541Z,78.40
2018-06-03T19:38:55.078Z,79.00
2018-06-03T19:41:22.651Z,79.70
2018-06-03T19:43:50.217Z,80.20
2018-06-03T19:46:17.912Z,80.80
2018-06-03T19:48:45.498Z,81.70
2018-06-03T19:51:13.238Z,82.30
2018-06-03T19:53:40.863Z,83.40
2018-06-03T19:56:08.403Z,84.30
2018-06-03T19:58:35.986Z,84.80
2018-06-03T20:01:03.503Z,85.60
2018-06-03T20:03:31.045Z,86.30
2018-06-03T20:05:58.618Z,87.10
2018-06-03T20:08:26.167Z,88.00
2018-06-03T20:10:53.785Z,88.90
2018-06-03T20:13:21.773Z,89.20
2018-06-03T20:15:49.276Z,89.70
2018-06-03T20:18:16.950Z,90.20
2018-06-03T20:20:44.446Z,90.60
2018-06-03T20:23:12.209Z,91.30
2018-06-03T20:25:39.708Z,91.20
2018-06-03T20:28:07.338Z,91.50
2018-06-03T20:30:34.975Z,92.00
2018-06-03T20:33:02.535Z,92.40
2018-06-03T20:35:30.057Z,92.80
2018-06-03T20:37:57.746Z,93.00
2018-06-03T20:40:25.414Z,93.30
2018-06-03T20:42:52.932Z,93.60
2018-06-03T20:45:20.476Z,93.90
2018-06-03T20:47:48.005Z,94.10
2018-06-03T20:50:15.547Z,94.30
2018-06-03T20:52:43.093Z,94.90
2018-06-03T20:55:10.590Z,95.40
2018-06-03T20:57:38.168Z,95.60
2018-06-03T21:00:05.779Z,95.90
2018-06-03T21:02:33.334Z,96.00
2018-06-03T21:05:00.889Z,96.60
2018-06-03T21:07:28.434Z,96.80
2018-06-03T21:09:55.966Z,96.90
2018-06-03T21:12:23.533Z,97.00
2018-06-03T21:14:51.082Z,97.30
2018-06-03T21:17:18.696Z,97.30
2018-06-03T21:19:46.530Z,97.30
2018-06-03T21:22:14.066Z,97.50
2018-06-03T21:24:42.095Z,97.90
2018-06-03T21:29:37.149Z,98.70
2018-06-03T21:32:04.937Z,99.00
2018-06-03T21:34:32.471Z,99.30
2018-06-03T21:37:00.019Z,99.50
2018-06-03T21:39:27.589Z,99.30
2018-06-03T21:41:55.134Z,99.30
2018-06-03T21:44:22.658Z,99.70
2018-06-03T21:46:50.214Z,99.80
2018-06-03T21:49:17.851Z,99.90
2018-06-03T21:51:45.362Z,99.90
2018-06-03T21:54:12.898Z,99.90
2018-06-03T21:56:40.957Z,99.90
2018-06-03T21:59:08.551Z,99.90
2018-06-03T22:01:36.135Z,99.90
2018-06-03T22:04:03.655Z,99.90
2018-06-03T22:06:31.161Z,99.90
2018-06-03T22:08:58.735Z,99.90
2018-06-03T22:11:26.288Z,99.90
2018-06-03T22:13:53.855Z,99.90
2018-06-03T22:16:21.447Z,99.90
2018-06-03T22:18:48.947Z,99.90
2018-06-03T22:21:16.487Z,99.90
2018-06-03T22:23:44.014Z,99.90
2018-06-03T22:26:11.682Z,99.90
2018-06-03T22:28:39.261Z,99.90
2018-06-03T22:31:06.997Z,99.90
2018-06-03T22:33:34.606Z,99.90
2018-06-03T22:36:02.140Z,99.90
2018-06-03T22:38:29.649Z,99.90
2018-06-03T22:40:57.279Z,99.90
2018-06-03T22:43:24.873Z,99.90
2018-06-03T22:45:52.438Z,99.90
2018-06-03T22:48:19.995Z,99.90
2018-06-03T22:50:47.590Z,99.90
2018-06-03T22:53:15.112Z,99.90
2018-06-03T22:55:42.661Z,99.90
2018-06-03T23:00:37.747Z,99.90
2018-06-03T23:03:10.988Z,99.90
2018-06-03T23:05:38.529Z,99.90
2018-06-03T23:08:06.082Z,99.90
2018-06-03T23:10:33.629Z,99.90
2018-06-03T23:13:01.175Z,99.90
2018-06-03T23:15:28.896Z,99.90
2018-06-03T23:17:57.567Z,99.90
2018-06-03T23:20:25.110Z,99.90
2018-06-03T23:22:52.676Z,99.90
2018-06-03T23:25:20.221Z,99.90
2018-06-03T23:27:47.742Z,99.90
2018-06-03T23:30:15.534Z,99.90
2018-06-03T23:32:43.413Z,99.90
2018-06-03T23:35:10.956Z,99.90
2018-06-03T23:37:38.487Z,99.90
2018-06-03T23:40:06.055Z,99.90
2018-06-03T23:42:33.690Z,99.90
2018-06-03T23:45:01.220Z,99.90
2018-06-03T23:47:28.736Z,99.90
2018-06-03T23:49:56.268Z,99.90
2018-06-03T23:52:23.830Z,99.90
2018-06-03T23:54:51.529Z,99.90
2018-06-03T23:57:20.135Z,99.90
2018-06-03T23:59:47.697Z,99.90
